Relevés horaires Les Attelas (Suisse)


Relevés horaires à Les Attelas - Lundi 11 Janv. 2016
Heure UTC1 Température [°C] Vent [km/h] Hum. [%] Pres.4 [hPa] Visi. [Km] Nébu. [octa] Préc.5 [mm] Cond.
2m. Res. Ros. Dir.2 Vit. Moy. Raf.3
23:00 -10.3 -21.6 -10.3 SO 44.4 46.3 90.7 100 700(0.8/3h) -- -- -- --
22:00 -10.5 -19.3 -10.5 OSO 24.1 42.6 74.1 100 700(0.9/3h) -- -- -- --
21:00 -10.1 -21 -10.1 OSO 40.7 42.6 77.8 100 700(1.2/3h) -- -- -- --
20:00 -9.8 -19.2 -9.8 SO 29.6 37.0 66.7 100 700(1.0/3h) -- -- -- --
19:00 -9.4 -19.4 -9.4 SO 35.2 42.6 77.8 100 700(1.1/3h) -- -- -- --
18:00 -9.1 -19.2 -9.1 SO 37.0 57.4 96.3 100 700(0.0/3h) -- -- -- --
17:00 -9.2 -18.9 -9.2 SO 33.3 40.7 68.5 100 700(0.4/3h) -- -- -- --
16:00 -9.0 -18.2 -9.0 OSO 29.6 33.3 63.0 100 700(0.3/3h) -- -- -- --
15:00 -8.6 -15.8 -8.6 OSO 18.5 57.4 96.3 100 700(-0.3/3h) -- -- -- --
14:00 -8.1 -17.5 -8.1 SO 33.3 57.4 96.3 100 700(-0.7/3h) -- -- -- --
13:00 -7.9 -18.4 -7.9 SSO 44.4 44.4 79.6 100 700(-1.1/3h) -- -- -- --
12:00 -7.4 -17.4 -7.4 SO 40.7 66.7 96.3 100 700(0.3/3h) -- -- -- --
11:00 -6.2 -13.4 -6.2 SO 22.2 66.7 85.2 100 700(-0.2/3h) -- -- -- --
10:00 -5.8 -14.2 -5.8 SO 31.5 66.7 96.3 100 700(0.6/3h) -- -- -- --
09:00 -4.4 -14.6 -4.4 SSO 55.6 55.6 96.3 100 700 -- -- -- --
08:00 -4.5 -10.7 -4.5 SO 18.5 40.7 64.8 100 700(0.6/3h) -- -- -- --
07:00 -3.8 -11.6 -3.8 SSO 31.5 42.6 68.5 100 700(-0.7/3h) -- -- -- --
06:00 -3.6 -11.9 -3.6 SSO 37.0 48.2 72.2 100 700(-1.2/3h) -- -- -- --
05:00 -3.7 -12.4 -3.7 S 40.7 40.7 53.7 100 700(-2.0/3h) -- -- -- --
04:00 -3.9 -11.9 -3.9 S 33.3 48.2 72.2 100 700(-1.6/3h) -- -- -- --
03:00 -3.7 -12.9 -3.7 SSO 46.3 48.2 64.8 100 700(-1.4/3h) -- -- -- --
02:00 -4.2 -13.1 -4.2 S 40.7 46.3 64.8 100 700(-1.6/3h) -- -- -- --
01:00 -4.2 -13.6 -4.2 S 46.3 48.2 64.8 100 700(-1.8/3h) -- -- -- --
00:00 -4.6 -13.9 -4.6 S 44.4 44.4 61.1 100 700(-1.6/3h) -- -- -- --

1 Coordinated Universal Time. Actuellement il est 04:00 locale et 02:00 UTC.

2 Le vent souffle depuis la direction indiquée vers la direction oposée.

3 Les rafales max. sont disponible 40 min après l'heure du relevé.

4 Pour les stations d'altitude (plus de 600m) le géopotentiel du niveau le plus proche de la pression obligatoire est indiqué.

5 Les stations disposant d'un diffuseur peuvent indiquer "trace". Cela signifie que des précipitations ont touchés le sol mais que la quantité est inférieure à 0.1 mm.

Copyright

Les données affichées sur cette page sont la propriété exclusive de Météo Suisse.

Récapitulatif de la journée
Température [°C] Vent [km/h] Ensoleillement4 [h] Precipitations totale5 [mm] Pression [Hpa]
Min1 Max.2 Moy.3 Max. Min Max.
-5.2 -3.2 48.5 96.3 0 h 6 min 0 700.0 700.0

1 Température minimale relevée entre 18:00 UTC la veille et 18:00 UTC le jour donné.

2 Température maximale relevée entre 06:00 UTC le jour donné et 06:00 UTC le lendemain.

3 Vent moyen de la journée basé sur les relevés horaires.

4 Ensoleillement en heures relevé entre 06:00 UTC la veille et 06:00 UTC le jour donné.

5 Précipitations totales tombées entre 06:00 UTC la jour donné et 06:00 UTC le lendemain.

Graphiques horaires